Time;durP1;ratioP1;P1;durP2;ratioP2;P2;SDS_P1;SDS_P2;PMS_P1;PMS_P2;Temp;Humidity;BMP_temperature;BMP_pressure;BME280_temperature;BME280_humidity;BME280_pressure;Samples;Min_cycle;Max_cycle;Signal;HPM_P1;HPM_P2
2024/04/11 00:01:49;;;;;;;14.60;6.33;;;9.40;1.00;;;;;;5536879;25;20276;-66
2024/04/11 00:04:39;;;;;;;19.87;7.73;;;9.40;1.00;;;;;;5545535;25;20709;-66
2024/04/11 00:07:25;;;;;;;16.97;7.37;;;9.30;1.00;;;;;;5527626;25;20721;-67
2024/04/11 00:10:14;;;;;;;15.10;6.93;;;9.20;6.00;;;;;;5532763;25;20633;-66
2024/04/11 00:13:04;;;;;;;15.63;6.70;;;9.30;1.00;;;;;;5531262;25;20265;-66
2024/04/11 00:15:56;;;;;;;11.20;6.07;;;9.30;1.00;;;;;;5541140;25;20281;-66
2024/04/11 00:18:43;;;;;;;11.87;6.03;;;9.40;1.00;;;;;;5546632;25;20277;-67
2024/04/11 00:21:32;;;;;;;13.40;5.87;;;9.40;1.00;;;;;;5532151;25;20278;-66
2024/04/11 00:24:21;;;;;;;18.30;6.63;;;9.40;1.00;;;;;;5539850;25;20740;-66
2024/04/11 00:27:10;;;;;;;12.43;5.77;;;9.40;1.00;;;;;;5532715;25;20349;-67
2024/04/11 00:30:00;;;;;;;13.00;5.90;;;9.40;1.00;;;;;;5553089;25;20322;-66
2024/04/11 00:32:49;;;;;;;15.80;6.60;;;9.40;1.00;;;;;;5522799;25;20283;-66
2024/04/11 00:35:36;;;;;;;16.03;7.00;;;9.40;1.00;;;;;;5554712;25;20276;-66
2024/04/11 00:38:27;;;;;;;19.60;9.07;;;9.30;1.00;;;;;;5548256;25;20338;-66
2024/04/11 00:41:13;;;;;;;24.17;9.73;;;9.30;1.00;;;;;;5551338;25;20721;-66
2024/04/11 00:44:03;;;;;;;20.63;8.97;;;9.30;1.00;;;;;;5522296;25;20570;-66
2024/04/11 00:46:57;;;;;;;24.63;9.77;;;9.30;1.00;;;;;;5533194;25;20298;-67
2024/04/11 00:49:44;;;;;;;17.93;7.47;;;9.30;1.00;;;;;;5545038;25;20243;-67
2024/04/11 00:52:33;;;;;;;11.50;6.17;;;9.20;1.00;;;;;;5540395;25;20269;-66
2024/04/11 00:55:20;;;;;;;12.20;5.93;;;9.10;47.20;;;;;;5513090;25;20284;-67
2024/04/11 00:58:09;;;;;;;12.33;5.83;;;9.20;99.90;;;;;;5494234;26;20277;-66
2024/04/11 01:00:57;;;;;;;18.80;6.13;;;9.20;99.90;;;;;;5501852;26;20228;-67
2024/04/11 01:03:49;;;;;;;11.90;6.03;;;9.20;99.90;;;;;;5495644;26;20275;-67
2024/04/11 01:07:06;;;;;;;15.77;5.70;;;9.10;80.20;;;;;;5502589;26;20417;-66
2024/04/11 01:09:52;;;;;;;11.43;5.30;;;9.00;21.00;;;;;;5512862;26;20224;-66
2024/04/11 01:12:39;;;;;;;12.40;5.77;;;9.00;99.90;;;;;;5494493;26;20229;-66
2024/04/11 01:15:28;;;;;;;11.00;5.40;;;8.80;99.90;;;;;;5502328;26;20761;-66
2024/04/11 01:18:15;;;;;;;14.37;6.03;;;8.70;1.00;;;;;;5504951;26;20343;-67
2024/04/11 01:21:07;;;;;;;13.23;5.93;;;8.60;1.00;;;;;;5504354;26;20220;-66
2024/04/11 01:23:56;;;;;;;12.13;6.17;;;8.50;1.00;;;;;;5510521;26;20239;-66
2024/04/11 01:26:47;;;;;;;14.57;6.50;;;8.50;1.00;;;;;;5509213;26;20283;-66
2024/04/11 01:29:35;;;;;;;14.63;6.17;;;8.60;1.00;;;;;;5520706;26;20335;-67
2024/04/11 01:32:24;;;;;;;13.10;6.37;;;8.50;1.00;;;;;;5499974;26;20239;-66
2024/04/11 01:35:11;;;;;;;11.83;5.97;;;8.50;51.40;;;;;;5511371;26;20291;-68
2024/04/11 01:38:01;;;;;;;10.77;5.77;;;8.50;99.90;;;;;;5508796;26;20726;-66
2024/04/11 01:40:50;;;;;;;10.40;5.93;;;8.50;99.90;;;;;;5505209;26;20339;-66
2024/04/11 01:43:40;;;;;;;12.00;6.50;;;8.50;99.90;;;;;;5505852;26;20224;-66
2024/04/11 01:46:26;;;;;;;13.10;5.87;;;8.50;99.90;;;;;;5513360;26;20298;-66
2024/04/11 01:49:16;;;;;;;11.47;5.87;;;8.60;99.90;;;;;;5504496;26;20613;-66
2024/04/11 01:52:09;;;;;;;12.40;6.10;;;8.70;99.90;;;;;;5501781;26;20679;-67
2024/04/11 01:55:00;;;;;;;10.13;5.63;;;8.70;99.90;;;;;;5511548;25;20234;-66
2024/04/11 01:57:49;;;;;;;10.80;5.17;;;8.70;2.30;;;;;;5545324;25;20713;-67
2024/04/11 02:00:38;;;;;;;11.07;5.03;;;8.70;1.00;;;;;;5542045;25;20275;-67
2024/04/11 02:03:30;;;;;;;22.37;10.27;;;8.70;1.00;;;;;;5548548;25;20397;-66
2024/04/11 02:06:19;;;;;;;11.93;5.93;;;8.70;1.00;;;;;;5540472;25;20287;-67
2024/04/11 02:09:09;;;;;;;12.63;5.83;;;8.60;1.00;;;;;;5547655;25;20227;-66
2024/04/11 02:11:59;;;;;;;14.90;6.00;;;8.50;1.00;;;;;;5537677;25;20274;-66
2024/04/11 02:14:48;;;;;;;18.07;6.37;;;8.50;34.40;;;;;;5538581;25;20276;-67
2024/04/11 02:17:37;;;;;;;16.60;6.47;;;8.50;85.60;;;;;;5534970;25;20218;-66
2024/04/11 02:20:24;;;;;;;18.23;7.30;;;8.50;99.90;;;;;;5533941;25;20736;-66
2024/04/11 02:23:13;;;;;;;14.53;6.43;;;8.50;99.90;;;;;;5524324;25;20313;-66
2024/04/11 02:26:00;;;;;;;16.27;7.53;;;8.50;1.00;;;;;;5545759;25;20269;-67
2024/04/11 02:28:49;;;;;;;14.67;7.40;;;8.50;1.00;;;;;;5539201;25;20714;-66
2024/04/11 02:31:38;;;;;;;13.20;7.53;;;8.40;1.00;;;;;;5536722;25;20238;-66
2024/04/11 02:34:29;;;;;;;18.03;8.23;;;8.40;99.90;;;;;;5542554;25;20288;-67
2024/04/11 02:37:16;;;;;;;17.27;8.50;;;8.40;1.00;;;;;;5538431;25;20302;-66
2024/04/11 02:40:07;;;;;;;17.90;8.37;;;8.50;99.90;;;;;;5539135;25;20720;-67
2024/04/11 02:42:55;;;;;;;30.93;15.93;;;8.50;99.90;;;;;;5539624;25;20261;-66
2024/04/11 02:45:44;;;;;;;18.00;9.77;;;8.40;99.90;;;;;;5537942;25;20233;-66
2024/04/11 02:48:33;;;;;;;16.33;7.30;;;8.40;99.90;;;;;;5532695;25;20271;-66
2024/04/11 02:51:23;;;;;;;14.00;6.33;;;8.40;99.90;;;;;;5537058;25;20230;-67
2024/04/11 02:54:10;;;;;;;11.87;5.67;;;8.30;1.00;;;;;;5540052;25;20860;-66
2024/04/11 02:57:00;;;;;;;14.37;7.00;;;8.40;1.00;;;;;;5485489;26;20227;-67
2024/04/11 02:59:46;;;;;;;14.13;7.30;;;8.30;1.00;;;;;;5492635;26;20789;-66
2024/04/11 03:02:37;;;;;;;18.97;9.90;;;8.30;1.00;;;;;;5512752;26;20273;-66
2024/04/11 03:05:26;;;;;;;24.60;12.37;;;8.20;99.90;;;;;;5503864;26;20239;-67
2024/04/11 03:08:16;;;;;;;35.20;13.43;;;8.30;99.90;;;;;;5508888;26;20282;-68
2024/04/11 03:11:02;;;;;;;24.97;12.83;;;8.30;1.00;;;;;;5505551;26;20300;-66
2024/04/11 03:13:55;;;;;;;20.67;10.07;;;8.20;1.00;;;;;;5504260;26;20283;-67
2024/04/11 03:16:42;;;;;;;20.80;10.83;;;8.20;1.00;;;;;;5500453;26;20277;-66
2024/04/11 03:19:31;;;;;;;18.47;10.37;;;8.10;1.00;;;;;;5509174;26;20234;-66
2024/04/11 03:22:21;;;;;;;20.50;9.57;;;8.00;99.90;;;;;;5516430;26;20334;-68
2024/04/11 03:25:10;;;;;;;17.93;8.83;;;8.10;99.90;;;;;;5501430;26;20299;-66
2024/04/11 03:27:56;;;;;;;19.97;11.37;;;8.20;99.90;;;;;;5496086;26;20285;-66
2024/04/11 03:30:55;;;;;;;27.13;12.27;;;8.20;99.90;;;;;;5484260;26;20339;-66
2024/04/11 03:33:42;;;;;;;19.60;10.33;;;8.20;99.90;;;;;;5502859;26;20243;-67
2024/04/11 03:36:32;;;;;;;22.00;10.83;;;8.20;99.90;;;;;;5499777;26;20711;-66
2024/04/11 03:39:21;;;;;;;22.90;11.20;;;8.20;76.20;;;;;;5502743;26;20235;-66
2024/04/11 03:42:11;;;;;;;26.23;11.17;;;8.10;4.20;;;;;;5498294;26;20606;-66
2024/04/11 03:45:10;;;;;;;21.60;10.37;;;8.10;43.90;;;;;;5507110;26;20337;-67
2024/04/11 03:48:00;;;;;;;22.33;10.67;;;8.10;89.10;;;;;;5491717;26;20329;-66
2024/04/11 03:50:49;;;;;;;43.97;18.83;;;8.10;79.00;;;;;;5500602;26;20358;-67
2024/04/11 03:53:36;;;;;;;28.07;13.93;;;8.00;99.90;;;;;;5493418;26;20242;-67
2024/04/11 03:56:28;;;;;;;18.90;9.73;;;8.00;99.90;;;;;;5500788;25;20239;-67
2024/04/11 03:59:15;;;;;;;20.37;9.90;;;8.00;1.00;;;;;;5495354;26;20342;-66
2024/04/11 04:02:06;;;;;;;28.87;9.73;;;8.00;1.00;;;;;;5500623;25;20236;-67
2024/04/11 04:04:53;;;;;;;17.97;9.50;;;7.90;1.00;;;;;;5494578;25;20264;-67
2024/04/11 04:07:43;;;;;;;20.03;10.00;;;7.90;1.00;;;;;;5521217;25;20229;-66
2024/04/11 04:10:31;;;;;;;21.00;9.63;;;8.00;1.00;;;;;;5506613;25;20227;-66
2024/04/11 04:13:24;;;;;;;30.43;13.47;;;8.00;1.00;;;;;;5519133;25;20264;-67
2024/04/11 04:16:14;;;;;;;36.27;15.20;;;8.00;99.90;;;;;;5500995;25;20282;-67
2024/04/11 04:19:03;;;;;;;30.97;14.33;;;8.00;99.90;;;;;;5525250;25;20630;-67
2024/04/11 04:21:50;;;;;;;41.13;17.67;;;8.00;1.00;;;;;;5513604;25;20837;-66
2024/04/11 04:24:40;;;;;;;19.27;10.30;;;8.00;99.90;;;;;;5524000;25;20220;-66
2024/04/11 04:27:26;;;;;;;26.97;10.53;;;8.00;1.00;;;;;;5489216;26;20247;-66
2024/04/11 04:30:18;;;;;;;16.80;9.13;;;8.00;1.00;;;;;;5495246;25;20320;-66
2024/04/11 04:33:06;;;;;;;20.00;10.07;;;8.10;1.00;;;;;;5478659;26;20608;-67
2024/04/11 04:35:55;;;;;;;21.57;8.47;;;8.20;99.90;;;;;;5484083;26;20777;-66
2024/04/11 04:38:45;;;;;;;16.80;8.83;;;8.30;1.00;;;;;;5487761;26;20347;-67
2024/04/11 04:41:32;;;;;;;21.00;8.60;;;8.40;99.90;;;;;;5490108;25;20624;-67
2024/04/11 04:44:22;;;;;;;20.97;9.03;;;8.50;1.00;;;;;;5512248;25;20226;-67
2024/04/11 04:47:28;;;;;;;22.77;9.27;;;8.50;1.00;;;;;;5495108;25;20232;-68
2024/04/11 04:50:14;;;;;;;16.60;8.70;;;8.60;1.00;;;;;;5514438;25;20228;-66
2024/04/11 04:53:05;;;;;;;19.50;9.63;;;8.70;99.90;;;;;;5511095;25;20655;-67
2024/04/11 04:55:52;;;;;;;17.90;8.43;;;8.80;99.90;;;;;;5518362;25;20817;-66
2024/04/11 04:58:42;;;;;;;18.03;9.47;;;8.90;1.00;;;;;;5515932;25;20714;-67
2024/04/11 05:01:31;;;;;;;21.50;9.33;;;9.00;99.90;;;;;;5508692;25;20243;-67
2024/04/11 05:04:24;;;;;;;20.50;10.00;;;9.10;99.90;;;;;;5501010;25;20277;-66
2024/04/11 05:07:12;;;;;;;16.13;8.70;;;9.10;89.50;;;;;;5499663;25;20745;-66
2024/04/11 05:10:01;;;;;;;18.83;9.03;;;9.20;1.00;;;;;;5514316;25;20299;-67
2024/04/11 05:12:49;;;;;;;19.70;9.60;;;9.30;1.00;;;;;;5504269;25;20778;-67
2024/04/11 05:15:39;;;;;;;22.47;10.77;;;9.40;1.00;;;;;;5512659;25;20228;-67
2024/04/11 05:18:26;;;;;;;24.23;11.67;;;9.40;99.90;;;;;;5503549;25;20228;-67
2024/04/11 05:21:23;;;;;;;21.27;10.50;;;9.50;99.90;;;;;;5518461;25;20220;-67
2024/04/11 05:24:10;;;;;;;22.40;10.67;;;9.60;99.90;;;;;;5508513;25;20745;-67
2024/04/11 05:26:59;;;;;;;21.20;10.50;;;9.70;1.00;;;;;;5502413;25;20320;-67
2024/04/11 05:29:46;;;;;;;14.97;9.60;;;9.70;1.00;;;;;;5521798;25;20937;-67
2024/04/11 05:32:36;;;;;;;17.47;9.77;;;9.70;1.00;;;;;;5511204;25;20236;-67
2024/04/11 05:35:23;;;;;;;22.67;8.77;;;9.80;1.00;;;;;;5515433;25;20617;-67
2024/04/11 05:38:15;;;;;;;17.17;8.73;;;9.80;99.90;;;;;;5506135;25;20274;-67
2024/04/11 05:41:02;;;;;;;16.33;9.37;;;9.90;99.90;;;;;;5511287;25;20235;-67
2024/04/11 05:43:51;;;;;;;17.90;9.47;;;10.10;99.90;;;;;;5499427;25;20230;-66
2024/04/11 05:46:42;;;;;;;17.43;9.90;;;10.10;99.90;;;;;;5489122;25;20237;-67
2024/04/11 05:49:28;;;;;;;17.97;9.33;;;10.20;99.90;;;;;;5481560;25;20428;-67
2024/04/11 05:52:18;;;;;;;21.40;8.40;;;10.30;1.00;;;;;;5499336;25;20221;-67
2024/04/11 05:55:10;;;;;;;24.13;9.27;;;10.40;1.00;;;;;;5503184;25;20270;-67
2024/04/11 05:57:59;;;;;;;13.10;7.93;;;10.50;1.00;;;;;;5484041;26;20224;-66
2024/04/11 06:00:49;;;;;;;11.47;7.10;;;10.50;99.90;;;;;;5514248;26;20235;-66
2024/04/11 06:03:40;;;;;;;14.27;7.97;;;10.50;16.10;;;;;;5510062;26;20545;-66
2024/04/11 06:06:26;;;;;;;16.63;8.37;;;10.50;99.90;;;;;;5497269;26;20227;-66
2024/04/11 06:09:16;;;;;;;12.80;7.07;;;10.60;1.00;;;;;;5481003;25;20284;-67
2024/04/11 06:12:08;;;;;;;15.80;6.97;;;10.70;1.00;;;;;;5481382;25;20311;-66
2024/04/11 06:14:58;;;;;;;14.80;7.73;;;10.80;99.90;;;;;;5490749;26;20659;-66
2024/04/11 06:17:45;;;;;;;15.67;6.80;;;10.80;99.90;;;;;;5494722;25;20235;-66
2024/04/11 06:20:34;;;;;;;13.83;6.33;;;10.80;99.90;;;;;;5500487;25;20636;-66
2024/04/11 06:23:21;;;;;;;12.43;6.57;;;10.90;99.90;;;;;;5508788;26;20234;-66
2024/04/11 06:26:14;;;;;;;14.50;7.13;;;11.00;1.00;;;;;;5508788;25;20277;-66
2024/04/11 06:29:07;;;;;;;11.93;5.73;;;11.00;1.00;;;;;;5505287;25;20352;-67
2024/04/11 06:32:00;;;;;;;15.70;7.27;;;11.10;1.00;;;;;;5485355;25;20222;-67
2024/04/11 06:34:52;;;;;;;19.87;8.97;;;11.10;1.00;;;;;;5510232;25;20278;-66
2024/04/11 06:37:44;;;;;;;17.87;7.93;;;11.20;1.00;;;;;;5508410;25;20228;-66
2024/04/11 06:40:32;;;;;;;18.90;9.37;;;11.30;1.00;;;;;;5504307;26;20295;-66
2024/04/11 06:43:22;;;;;;;11.90;6.50;;;11.30;99.90;;;;;;5495503;26;20325;-66
2024/04/11 06:46:13;;;;;;;12.03;6.23;;;11.40;99.90;;;;;;5510629;25;20605;-67
2024/04/11 06:49:02;;;;;;;17.63;8.03;;;11.60;1.00;;;;;;5494089;25;20585;-67
2024/04/11 06:51:49;;;;;;;10.63;5.67;;;11.50;63.80;;;;;;5490567;25;20412;-67
2024/04/11 06:54:40;;;;;;;12.07;6.03;;;11.70;1.00;;;;;;5513019;25;20231;-66
2024/04/11 06:57:27;;;;;;;11.40;5.60;;;11.70;1.00;;;;;;5545762;25;20273;-66
2024/04/11 07:00:21;;;;;;;16.27;6.43;;;11.80;99.90;;;;;;5522839;25;20278;-66
2024/04/11 07:03:16;;;;;;;40.10;14.43;;;11.90;99.90;;;;;;5527146;25;20232;-67
2024/04/11 07:06:09;;;;;;;21.30;7.90;;;11.70;99.90;;;;;;5545299;25;20221;-66
2024/04/11 07:08:56;;;;;;;13.13;6.10;;;11.80;99.90;;;;;;5540762;25;20234;-66
2024/04/11 07:11:48;;;;;;;26.50;10.23;;;12.00;99.90;;;;;;5525650;25;20297;-66
2024/04/11 07:14:35;;;;;;;31.10;10.20;;;11.90;99.90;;;;;;5537984;25;20799;-66
2024/04/11 07:17:27;;;;;;;25.70;10.17;;;12.00;99.90;;;;;;5532987;25;20329;-67
2024/04/11 07:20:25;;;;;;;32.23;11.73;;;12.20;99.90;;;;;;5554105;25;20243;-66
2024/04/11 07:23:17;;;;;;;29.37;11.93;;;12.30;99.90;;;;;;5525144;25;20237;-66
2024/04/11 07:26:07;;;;;;;10.27;4.93;;;12.40;99.90;;;;;;5534766;25;20337;-66
2024/04/11 07:28:59;;;;;;;19.73;7.60;;;12.60;99.90;;;;;;5527522;25;20222;-66
2024/04/11 07:31:48;;;;;;;65.40;19.40;;;12.50;99.90;;;;;;5535319;25;20294;-66
2024/04/11 07:34:35;;;;;;;39.73;14.30;;;12.60;99.90;;;;;;5540355;25;20225;-66
2024/04/11 07:37:27;;;;;;;34.50;12.40;;;12.70;99.90;;;;;;5521966;25;20243;-66
2024/04/11 07:40:27;;;;;;;23.00;9.33;;;12.80;99.90;;;;;;5527482;25;20711;-66
2024/04/11 07:43:17;;;;;;;56.30;19.17;;;12.80;52.50;;;;;;5545943;25;20219;-66
2024/04/11 07:46:04;;;;;;;51.50;19.00;;;13.00;99.90;;;;;;5543533;25;20610;-67
2024/04/11 07:48:54;;;;;;;19.17;9.40;;;13.30;99.90;;;;;;5540454;25;20248;-66
2024/04/11 07:51:41;;;;;;;32.77;13.97;;;13.50;27.40;;;;;;5546433;25;20280;-66
2024/04/11 07:54:35;;;;;;;18.17;8.17;;;13.70;1.00;;;;;;5545494;25;20596;-66
2024/04/11 07:57:22;;;;;;;13.77;6.70;;;13.70;1.00;;;;;;5529429;25;20228;-66
2024/04/11 08:00:20;;;;;;;12.70;5.60;;;13.60;1.00;;;;;;5527808;25;20286;-66
2024/04/11 08:03:07;;;;;;;16.03;8.23;;;13.50;1.00;;;;;;5533953;25;20736;-66
2024/04/11 08:05:57;;;;;;;13.77;7.03;;;13.40;1.00;;;;;;5504635;25;20220;-67
2024/04/11 08:08:45;;;;;;;12.70;5.70;;;13.40;1.00;;;;;;5502016;25;20232;-66
2024/04/11 08:11:38;;;;;;;10.20;5.40;;;13.70;1.00;;;;;;5494482;25;20611;-66
2024/04/11 08:14:28;;;;;;;11.33;5.60;;;13.90;1.00;;;;;;5516500;25;20231;-66
2024/04/11 08:17:15;;;;;;;12.20;6.63;;;14.00;1.00;;;;;;5502980;26;20291;-67
2024/04/11 08:20:12;;;;;;;11.60;5.73;;;14.20;1.00;;;;;;5505268;25;20231;-67
2024/04/11 08:22:58;;;;;;;8.87;5.00;;;14.20;1.00;;;;;;5507028;25;20233;-66
2024/04/11 08:25:48;;;;;;;14.07;4.67;;;14.00;1.00;;;;;;5505269;25;20295;-66
2024/04/11 08:28:37;;;;;;;15.10;5.60;;;13.90;1.00;;;;;;5515074;25;20237;-66
2024/04/11 08:31:30;;;;;;;10.70;5.33;;;13.90;1.00;;;;;;5506342;25;20331;-66
2024/04/11 08:34:20;;;;;;;11.27;5.60;;;14.30;1.00;;;;;;5495952;26;20298;-66
2024/04/11 08:37:10;;;;;;;12.30;5.13;;;14.70;1.00;;;;;;5513092;25;20236;-66
2024/04/11 08:39:57;;;;;;;18.13;9.17;;;15.10;1.00;;;;;;5511129;25;20713;-66
2024/04/11 08:42:47;;;;;;;10.50;5.87;;;15.10;1.00;;;;;;5498654;25;20275;-67
2024/04/11 08:45:37;;;;;;;9.63;5.87;;;15.40;1.00;;;;;;5514965;25;20236;-67
2024/04/11 08:48:26;;;;;;;10.43;5.30;;;15.40;1.00;;;;;;5507940;25;20336;-66
2024/04/11 08:51:19;;;;;;;9.63;4.83;;;15.20;1.00;;;;;;5505735;25;20749;-67
2024/04/11 08:54:09;;;;;;;9.43;4.57;;;15.00;1.00;;;;;;5499791;26;20224;-66
2024/04/11 08:56:56;;;;;;;18.83;7.80;;;15.00;1.00;;;;;;5494069;26;20818;-66
2024/04/11 08:59:47;;;;;;;10.20;5.47;;;15.00;1.00;;;;;;5491159;25;20240;-66
2024/04/11 09:02:37;;;;;;;8.93;4.60;;;15.20;1.00;;;;;;5492702;25;20544;-66
2024/04/11 09:05:30;;;;;;;12.53;5.63;;;15.40;1.00;;;;;;5509283;25;20223;-66
2024/04/11 09:08:19;;;;;;;9.23;5.30;;;15.40;1.00;;;;;;5498381;26;20279;-66
2024/04/11 09:11:08;;;;;;;7.30;3.73;;;15.90;1.00;;;;;;5513223;26;20231;-66
2024/04/11 09:13:58;;;;;;;6.87;3.80;;;16.30;1.00;;;;;;5495240;26;20728;-66
2024/04/11 09:16:48;;;;;;;9.20;3.70;;;16.10;1.00;;;;;;5486827;26;20336;-66
2024/04/11 09:19:40;;;;;;;7.60;4.27;;;15.70;1.00;;;;;;5513682;26;20284;-67
2024/04/11 09:22:29;;;;;;;6.93;3.73;;;16.00;1.00;;;;;;5509350;25;20581;-66
2024/04/11 09:25:17;;;;;;;7.47;3.80;;;16.30;1.00;;;;;;5490623;26;20286;-66
2024/04/11 09:28:11;;;;;;;7.07;3.60;;;16.20;1.00;;;;;;5496053;26;20270;-66
2024/04/11 09:30:58;;;;;;;14.80;5.97;;;16.10;1.50;;;;;;5488570;26;20660;-66
2024/04/11 09:33:47;;;;;;;7.90;3.90;;;16.50;1.00;;;;;;5513249;26;20235;-66
2024/04/11 09:36:36;;;;;;;7.07;3.73;;;17.00;44.70;;;;;;5515242;26;20620;-66
2024/04/11 09:42:30;;;;;;;7.13;3.80;;;16.90;1.00;;;;;;5502455;26;20231;-66
2024/04/11 09:45:18;;;;;;;8.23;3.67;;;15.80;1.00;;;;;;5503166;26;20336;-66
2024/04/11 09:48:12;;;;;;;5.90;3.60;;;16.10;99.90;;;;;;5494282;26;20219;-66
2024/04/11 09:51:05;;;;;;;7.60;4.27;;;16.70;99.90;;;;;;5491913;26;20238;-67
2024/04/11 09:53:57;;;;;;;4.80;3.07;;;17.30;99.90;;;;;;5506123;25;20648;-66
2024/04/11 09:56:46;;;;;;;5.57;3.27;;;17.40;1.00;;;;;;5536348;25;20236;-66
2024/04/11 09:59:36;;;;;;;6.03;3.30;;;17.20;1.00;;;;;;5549635;25;20230;-66
2024/04/11 10:02:24;;;;;;;7.83;3.70;;;17.30;1.00;;;;;;5549983;25;20230;-66
2024/04/11 10:05:16;;;;;;;8.10;3.63;;;17.40;1.00;;;;;;5547063;25;20219;-66
2024/04/11 10:08:03;;;;;;;9.40;3.50;;;17.40;1.00;;;;;;5523105;25;20227;-66
2024/04/11 10:10:58;;;;;;;7.30;3.63;;;16.70;1.00;;;;;;5528738;25;20276;-67
2024/04/11 10:13:46;;;;;;;10.40;3.77;;;16.50;1.00;;;;;;5542173;25;20298;-66
2024/04/11 10:16:37;;;;;;;4.87;2.97;;;16.20;1.00;;;;;;5552059;25;20219;-66
2024/04/11 10:19:26;;;;;;;6.37;3.60;;;16.30;1.00;;;;;;5545888;25;20257;-66
2024/04/11 10:22:20;;;;;;;5.53;3.87;;;16.50;1.00;;;;;;5547087;25;20572;-66
2024/04/11 10:25:06;;;;;;;10.33;3.00;;;16.50;1.00;;;;;;5556338;25;20229;-66
2024/04/11 10:27:59;;;;;;;6.43;3.33;;;16.00;1.00;;;;;;5524387;25;20266;-67
2024/04/11 10:30:50;;;;;;;4.73;3.40;;;16.70;1.00;;;;;;5531360;25;21803;-66
2024/04/11 10:33:52;;;;;;;5.00;3.17;;;17.50;1.00;;;;;;5542031;25;20226;-66
2024/04/11 10:36:43;;;;;;;4.40;3.07;;;17.90;1.00;;;;;;5547038;25;20673;-66
2024/04/11 10:39:35;;;;;;;4.63;2.93;;;18.30;1.00;;;;;;5545173;25;20653;-66
2024/04/11 10:42:36;;;;;;;8.40;3.80;;;18.30;1.00;;;;;;5544835;25;20528;-66
2024/04/11 10:45:29;;;;;;;5.97;2.87;;;17.10;1.00;;;;;;5538283;25;20816;-66
2024/04/11 10:48:16;;;;;;;5.70;3.30;;;16.90;1.00;;;;;;5546063;25;20270;-66
2024/04/11 10:51:05;;;;;;;7.37;3.40;;;17.20;1.00;;;;;;5523182;25;20627;-67
2024/04/11 10:54:08;;;;;;;4.97;3.20;;;17.30;1.00;;;;;;5520254;25;20239;-66
2024/04/11 10:56:58;;;;;;;7.53;3.43;;;18.00;1.00;;;;;;5523512;25;20773;-66
2024/04/11 10:59:50;;;;;;;6.37;2.90;;;18.80;1.00;;;;;;5524557;25;20273;-66
2024/04/11 11:02:44;;;;;;;6.30;3.00;;;19.20;1.00;;;;;;5528195;25;20640;-66
2024/04/11 11:05:30;;;;;;;5.70;3.07;;;18.80;1.00;;;;;;5536301;25;20230;-66
2024/04/11 11:08:21;;;;;;;4.73;3.23;;;18.80;1.00;;;;;;5520107;25;20683;-66
2024/04/11 11:11:11;;;;;;;3.80;2.60;;;16.80;1.00;;;;;;5536058;25;20563;-67
2024/04/11 11:14:00;;;;;;;6.30;2.90;;;17.80;1.00;;;;;;5543628;25;20567;-66
2024/04/11 11:16:50;;;;;;;6.27;3.10;;;17.70;1.00;;;;;;5544125;25;20221;-66
2024/04/11 11:19:40;;;;;;;5.63;3.37;;;17.20;1.00;;;;;;5546187;25;20227;-66
2024/04/11 11:22:33;;;;;;;5.13;3.00;;;16.90;1.00;;;;;;5534096;25;20394;-67
2024/04/11 11:25:21;;;;;;;6.83;2.90;;;17.80;1.00;;;;;;5540996;25;20658;-66
2024/04/11 11:28:13;;;;;;;9.27;3.70;;;18.10;1.00;;;;;;5535258;25;20227;-66
2024/04/11 11:31:00;;;;;;;4.40;2.90;;;17.60;1.00;;;;;;5536120;25;20223;-67
2024/04/11 11:33:51;;;;;;;7.03;2.93;;;16.90;1.00;;;;;;5553440;25;20295;-66
2024/04/11 11:36:44;;;;;;;6.67;3.00;;;16.90;1.00;;;;;;5530385;25;20244;-66
2024/04/11 11:39:36;;;;;;;5.87;3.03;;;16.90;1.00;;;;;;5541875;25;20304;-66
2024/04/11 11:42:23;;;;;;;5.70;3.37;;;17.50;1.00;;;;;;5541994;25;20224;-67
2024/04/11 11:45:16;;;;;;;6.67;2.97;;;17.40;13.70;;;;;;5535900;25;20232;-65
2024/04/11 11:48:12;;;;;;;4.70;3.00;;;17.40;1.00;;;;;;5539911;25;20624;-65
2024/04/11 11:51:05;;;;;;;6.33;3.13;;;17.10;1.00;;;;;;5547093;25;20294;-66
2024/04/11 11:54:00;;;;;;;5.17;3.37;;;16.30;1.00;;;;;;5539641;25;20281;-66
2024/04/11 11:57:09;;;;;;;5.90;3.43;;;16.40;1.00;;;;;;5500113;25;20281;-66
2024/04/11 11:59:57;;;;;;;7.57;3.73;;;16.20;1.00;;;;;;5490877;25;20722;-66
2024/04/11 12:02:50;;;;;;;8.03;3.27;;;16.70;1.00;;;;;;5499598;25;20802;-66
2024/04/11 12:05:39;;;;;;;5.67;3.43;;;16.70;1.00;;;;;;5495873;25;20711;-66
2024/04/11 12:08:28;;;;;;;6.77;3.40;;;16.90;3.30;;;;;;5509243;25;20695;-66
2024/04/11 12:11:21;;;;;;;5.33;3.03;;;17.30;1.00;;;;;;5517344;25;20296;-67
2024/04/11 12:14:22;;;;;;;6.67;3.03;;;17.70;1.00;;;;;;5488486;25;20225;-66
2024/04/11 12:17:14;;;;;;;8.10;3.50;;;17.60;1.00;;;;;;5495039;25;20287;-66
2024/04/11 12:20:07;;;;;;;34.20;13.37;;;18.20;1.00;;;;;;5512803;25;20251;-66
2024/04/11 12:23:06;;;;;;;19.27;7.87;;;18.70;1.00;;;;;;5525480;25;20329;-66
2024/04/11 12:25:56;;;;;;;6.50;3.80;;;19.10;1.00;;;;;;5524201;25;20237;-66
2024/04/11 12:28:45;;;;;;;11.63;4.17;;;18.60;1.00;;;;;;5531865;25;20232;-66
2024/04/11 12:31:35;;;;;;;6.47;3.40;;;18.70;1.00;;;;;;5524606;25;20238;-66
2024/04/11 12:34:23;;;;;;;6.80;3.30;;;18.40;1.00;;;;;;5519683;25;20494;-66
2024/04/11 12:37:15;;;;;;;6.27;3.40;;;18.20;1.00;;;;;;5507907;25;20829;-65
2024/04/11 12:40:06;;;;;;;7.73;3.30;;;18.10;1.00;;;;;;5513319;25;20234;-66
2024/04/11 12:42:56;;;;;;;5.00;3.33;;;18.50;1.00;;;;;;5517602;25;20269;-66
2024/04/11 12:45:52;;;;;;;7.57;3.63;;;18.50;1.00;;;;;;5517789;25;20231;-65
2024/04/11 12:48:46;;;;;;;7.60;3.83;;;17.90;1.00;;;;;;5520405;25;20234;-65
2024/04/11 12:51:36;;;;;;;7.13;4.00;;;17.70;1.00;;;;;;5515970;25;20332;-66
2024/04/11 12:54:26;;;;;;;6.47;3.77;;;18.70;1.00;;;;;;5493975;25;20290;-66
2024/04/11 12:57:17;;;;;;;7.30;3.90;;;18.90;1.00;;;;;;5510901;26;20232;-66
2024/04/11 13:00:09;;;;;;;5.70;3.50;;;19.10;1.00;;;;;;5510343;26;20335;-66
2024/04/11 13:03:15;;;;;;;7.27;3.57;;;19.50;1.00;;;;;;5512504;26;20320;-65
2024/04/11 13:06:07;;;;;;;6.33;3.30;;;19.40;1.00;;;;;;5497349;26;20231;-65
2024/04/11 13:09:00;;;;;;;9.13;4.03;;;19.30;1.00;;;;;;5497370;26;20631;-65
2024/04/11 13:11:48;;;;;;;7.13;4.17;;;18.40;1.00;;;;;;5493715;26;20703;-65
2024/04/11 13:14:43;;;;;;;7.90;3.37;;;18.60;1.00;;;;;;5505339;26;20227;-65
2024/04/11 13:17:33;;;;;;;7.80;3.77;;;18.90;1.00;;;;;;5490657;26;20311;-66
2024/04/11 13:20:34;;;;;;;9.00;3.50;;;18.30;1.00;;;;;;5504845;26;20243;-65
2024/04/11 13:23:21;;;;;;;7.27;3.60;;;18.60;1.00;;;;;;5494638;26;20238;-65
2024/04/11 13:26:10;;;;;;;8.63;3.67;;;17.90;1.00;;;;;;5510902;26;20284;-65
2024/04/11 13:28:58;;;;;;;8.73;4.20;;;17.80;1.00;;;;;;5498075;26;20234;-65
2024/04/11 13:31:51;;;;;;;15.03;5.90;;;18.20;1.00;;;;;;5500778;26;20231;-65
2024/04/11 13:34:39;;;;;;;56.00;15.77;;;18.40;1.00;;;;;;5509953;26;20627;-65
2024/04/11 13:37:37;;;;;;;14.70;5.83;;;19.00;1.00;;;;;;5491570;26;20335;-65
2024/04/11 13:43:31;;;;;;;7.23;3.83;;;18.60;1.00;;;;;;5501439;26;20226;-65
2024/04/11 13:46:33;;;;;;;7.13;3.57;;;17.90;1.00;;;;;;5491347;26;20744;-65
2024/04/11 13:49:30;;;;;;;8.77;4.23;;;17.80;1.00;;;;;;5504971;26;20695;-65
2024/04/11 13:52:26;;;;;;;7.87;4.00;;;17.60;1.00;;;;;;5501828;26;20255;-65
2024/04/11 13:55:18;;;;;;;6.63;3.60;;;18.00;1.00;;;;;;5483916;26;21082;-65
2024/04/11 13:58:07;;;;;;;5.90;3.60;;;18.30;1.00;;;;;;5489345;26;20282;-65
2024/04/11 14:01:02;;;;;;;12.00;3.97;;;18.20;1.00;;;;;;5490659;26;20229;-65
2024/04/11 14:03:51;;;;;;;22.70;8.17;;;18.20;1.00;;;;;;5495564;26;20309;-65
2024/04/11 14:06:57;;;;;;;12.73;5.40;;;18.60;1.00;;;;;;5503227;26;20287;-65
2024/04/11 14:09:47;;;;;;;8.27;3.80;;;19.10;1.00;;;;;;5503347;26;20296;-66
2024/04/11 14:12:37;;;;;;;6.53;3.77;;;18.60;1.00;;;;;;5485282;26;20306;-66
2024/04/11 14:15:27;;;;;;;6.37;3.30;;;18.20;1.00;;;;;;5484762;26;20231;-66
2024/04/11 14:18:18;;;;;;;8.00;3.77;;;18.80;1.00;;;;;;5501073;26;20242;-66
2024/04/11 14:24:15;;;;;;;9.60;4.93;;;18.70;1.00;;;;;;5508947;26;20237;-66
2024/04/11 14:27:06;;;;;;;8.30;3.90;;;18.60;1.00;;;;;;5484253;26;20232;-65
2024/04/11 14:30:00;;;;;;;5.87;3.60;;;18.70;1.00;;;;;;5482142;26;20233;-65
2024/04/11 14:39:05;;;;;;;6.60;3.83;;;18.50;1.00;;;;;;5497456;26;20561;-65
2024/04/11 14:41:51;;;;;;;9.83;4.20;;;18.40;1.00;;;;;;5487654;26;20564;-65
2024/04/11 14:44:44;;;;;;;5.83;3.57;;;18.60;1.00;;;;;;5492228;26;20224;-65
2024/04/11 14:47:33;;;;;;;11.13;3.67;;;19.10;1.00;;;;;;5501641;26;20230;-65
2024/04/11 14:50:23;;;;;;;6.60;3.67;;;19.30;1.00;;;;;;5489432;26;20344;-65
2024/04/11 14:53:10;;;;;;;7.30;3.93;;;19.90;1.00;;;;;;5489068;26;20234;-65
2024/04/11 14:56:14;;;;;;;9.40;4.27;;;20.90;1.00;;;;;;5529800;25;20277;-66
2024/04/11 14:59:00;;;;;;;8.10;3.30;;;21.60;1.00;;;;;;5547497;25;20237;-66
2024/04/11 15:01:53;;;;;;;5.77;3.30;;;22.10;1.00;;;;;;5519548;25;20223;-65
2024/04/11 15:04:43;;;;;;;9.43;3.90;;;21.90;1.00;;;;;;5532021;25;20227;-65
2024/04/11 15:07:33;;;;;;;9.93;3.53;;;21.10;1.00;;;;;;5545303;25;20268;-65